createdAt,value
2018-03-18T00:00:22.494Z,51.8
2018-03-18T00:01:12.454Z,51.9
2018-03-18T00:02:02.181Z,51.8
2018-03-18T00:02:51.892Z,51.8
2018-03-18T00:03:42.309Z,51.8
2018-03-18T00:04:32.829Z,51.8
2018-03-18T00:05:22.932Z,51.8
2018-03-18T00:06:12.959Z,51.8
2018-03-18T00:07:02.789Z,51.8
2018-03-18T00:07:53.359Z,51.8
2018-03-18T00:08:43.429Z,51.8
2018-03-18T00:09:32.629Z,51.8
2018-03-18T00:10:24.106Z,51.8
2018-03-18T00:11:12.909Z,51.8
2018-03-18T00:12:04.164Z,51.8
2018-03-18T00:12:52.723Z,51.8
2018-03-18T00:13:43.329Z,51.8
2018-03-18T00:14:33.357Z,51.8
2018-03-18T00:15:23.598Z,51.8
2018-03-18T00:16:13.678Z,51.8
2018-03-18T00:17:03.228Z,51.7
2018-03-18T00:17:54.096Z,51.7
2018-03-18T00:18:44.050Z,51.7
2018-03-18T00:19:33.840Z,51.7
2018-03-18T00:20:24.328Z,51.7
2018-03-18T00:21:14.320Z,51.7
2018-03-18T00:22:04.103Z,51.7
2018-03-18T00:22:54.356Z,51.7
2018-03-18T00:23:44.220Z,51.7
2018-03-18T00:24:34.572Z,51.7
2018-03-18T00:25:24.228Z,51.7
2018-03-18T00:26:14.772Z,51.7
2018-03-18T00:27:04.956Z,51.6
2018-03-18T00:27:55.073Z,51.7
2018-03-18T00:28:45.059Z,51.6
2018-03-18T00:29:34.155Z,51.6
2018-03-18T00:30:25.487Z,51.6
2018-03-18T00:31:14.965Z,51.6
2018-03-18T00:32:05.255Z,51.6
2018-03-18T00:32:55.357Z,51.6
2018-03-18T00:33:45.241Z,51.6
2018-03-18T00:34:35.264Z,51.6
2018-03-18T00:35:25.066Z,51.6
2018-03-18T00:36:15.919Z,51.6
2018-03-18T00:37:05.112Z,51.6
2018-03-18T00:37:55.214Z,51.6
2018-03-18T00:38:45.092Z,51.6
2018-03-18T00:39:36.123Z,51.6
2018-03-18T00:40:25.562Z,51.6
2018-03-18T00:41:16.234Z,51.6
2018-03-18T00:42:06.089Z,51.6
2018-03-18T00:42:55.701Z,51.6
2018-03-18T00:43:45.874Z,51.6
2018-03-18T00:44:35.992Z,51.6
2018-03-18T00:45:26.361Z,51.6
2018-03-18T00:46:16.692Z,51.6
2018-03-18T00:47:05.889Z,51.6
2018-03-18T00:47:56.169Z,51.5
2018-03-18T00:48:46.610Z,51.5
2018-03-18T00:49:36.659Z,51.5
2018-03-18T00:50:26.916Z,51.5
2018-03-18T00:51:16.225Z,51.5
2018-03-18T00:52:06.833Z,51.5
2018-03-18T00:52:56.489Z,51.5
2018-03-18T00:53:46.887Z,51.5
2018-03-18T00:54:36.556Z,51.5
2018-03-18T00:55:27.314Z,51.4
2018-03-18T00:56:16.806Z,51.4
2018-03-18T00:57:07.195Z,51.5
2018-03-18T00:57:57.153Z,51.4
2018-03-18T00:58:46.738Z,51.4
2018-03-18T00:59:36.399Z,51.4
2018-03-18T01:00:26.954Z,51.4
2018-03-18T01:01:17.498Z,51.4
2018-03-18T01:02:07.160Z,51.4
2018-03-18T01:02:57.811Z,51.4
2018-03-18T01:03:47.939Z,51.4
2018-03-18T01:04:37.797Z,51.4
2018-03-18T01:05:27.523Z,51.4
2018-03-18T01:06:17.286Z,51.4
2018-03-18T01:07:07.314Z,51.4
2018-03-18T01:07:56.995Z,51.4
2018-03-18T01:08:47.657Z,51.4
2018-03-18T01:09:38.562Z,51.4
2018-03-18T01:10:27.565Z,51.4
2018-03-18T01:11:17.442Z,51.4
2018-03-18T01:12:07.321Z,51.3
2018-03-18T01:12:57.677Z,51.4
2018-03-18T01:13:48.334Z,51.4
2018-03-18T01:14:38.184Z,51.3
2018-03-18T01:15:27.275Z,51.4
2018-03-18T01:16:18.107Z,51.4
2018-03-18T01:17:08.670Z,51.3
2018-03-18T01:17:58.192Z,51.3
2018-03-18T01:18:48.298Z,51.3
2018-03-18T01:19:38.557Z,51.3
2018-03-18T01:20:28.589Z,51.3
2018-03-18T01:21:18.687Z,51.3
2018-03-18T01:22:08.334Z,51.3
2018-03-18T01:22:59.843Z,51.3
2018-03-18T01:23:48.648Z,51.3
2018-03-18T01:24:38.922Z,51.3
2018-03-18T01:25:29.432Z,51.3
2018-03-18T01:26:18.606Z,51.3
2018-03-18T01:27:09.077Z,51.3
2018-03-18T01:27:58.905Z,51.3
2018-03-18T01:28:48.841Z,51.3
2018-03-18T01:29:40.031Z,51.3
2018-03-18T01:30:29.609Z,51.3
2018-03-18T01:31:19.055Z,51.3
2018-03-18T01:32:09.835Z,51.3
2018-03-18T01:32:59.224Z,51.3
2018-03-18T01:33:49.884Z,51.2
2018-03-18T01:34:40.161Z,51.2
2018-03-18T01:35:29.871Z,51.2
2018-03-18T01:36:19.957Z,51.2
2018-03-18T01:37:10.102Z,51.2
2018-03-18T01:37:59.860Z,51.2
2018-03-18T01:38:49.636Z,51.2
2018-03-18T01:39:39.925Z,51.2
2018-03-18T01:40:30.041Z,51.2
2018-03-18T01:41:20.285Z,51.2
2018-03-18T01:42:09.589Z,51.1
2018-03-18T01:42:59.848Z,51.2
2018-03-18T01:43:50.800Z,51.1
2018-03-18T01:44:40.087Z,51.1
2018-03-18T01:45:30.594Z,51.1
2018-03-18T01:46:19.688Z,51.1
2018-03-18T01:47:10.428Z,51.1
2018-03-18T01:48:00.881Z,51.1
2018-03-18T01:48:50.243Z,51.1
2018-03-18T01:49:41.030Z,51.1
2018-03-18T01:50:30.857Z,51.1
2018-03-18T01:51:20.640Z,51.1
2018-03-18T01:52:10.628Z,51.1
2018-03-18T01:53:00.952Z,51.1
2018-03-18T01:53:52.090Z,51.1
2018-03-18T01:54:40.603Z,51.1
2018-03-18T01:55:31.338Z,51.1
2018-03-18T01:56:21.186Z,51.1
2018-03-18T01:57:11.183Z,51.1
2018-03-18T01:58:01.016Z,51.1
2018-03-18T01:58:51.402Z,51.1
2018-03-18T01:59:41.156Z,51.1
2018-03-18T02:00:31.320Z,51.1
2018-03-18T02:01:21.068Z,51.1
2018-03-18T02:02:11.629Z,51.1
2018-03-18T02:03:01.177Z,51.1
2018-03-18T02:03:50.547Z,51
2018-03-18T02:04:40.815Z,51
2018-03-18T02:05:30.769Z,51
2018-03-18T02:06:21.370Z,51
2018-03-18T02:07:11.985Z,51
2018-03-18T02:08:02.229Z,51
2018-03-18T02:08:52.426Z,51
2018-03-18T02:09:40.911Z,50.9
2018-03-18T02:10:32.449Z,50.9
2018-03-18T02:11:22.409Z,50.9
2018-03-18T02:12:12.864Z,50.9
2018-03-18T02:13:01.315Z,50.9
2018-03-18T02:13:52.376Z,50.9
2018-03-18T02:14:42.309Z,50.9
2018-03-18T02:15:32.764Z,50.9
2018-03-18T02:16:23.131Z,50.9
2018-03-18T02:17:12.116Z,50.9
2018-03-18T02:18:01.019Z,50.9
2018-03-18T02:18:52.518Z,50.9
2018-03-18T02:19:42.704Z,50.9
2018-03-18T02:20:32.873Z,50.9
2018-03-18T02:21:22.831Z,50.9
2018-03-18T02:22:12.573Z,50.9
2018-03-18T02:23:02.648Z,50.9
2018-03-18T02:23:53.388Z,50.9
2018-03-18T02:24:43.249Z,50.9
2018-03-18T02:25:33.808Z,50.9
2018-03-18T02:26:23.955Z,50.9
2018-03-18T02:27:14.038Z,50.9
2018-03-18T02:28:03.478Z,50.9
2018-03-18T02:28:53.556Z,50.9
2018-03-18T02:29:44.708Z,50.8
2018-03-18T02:30:34.173Z,50.8
2018-03-18T02:31:23.745Z,50.8
2018-03-18T02:32:14.002Z,50.8
2018-03-18T02:33:02.908Z,50.8
2018-03-18T02:33:54.343Z,50.8
2018-03-18T02:34:43.693Z,50.8
2018-03-18T02:35:33.453Z,50.8
2018-03-18T02:36:22.748Z,50.8
2018-03-18T02:37:13.967Z,50.8
2018-03-18T02:38:03.727Z,50.8
2018-03-18T02:38:54.482Z,50.8
2018-03-18T02:39:43.646Z,50.8
2018-03-18T02:40:34.401Z,50.8
2018-03-18T02:41:25.245Z,50.8
2018-03-18T02:42:14.333Z,50.8
2018-03-18T02:43:04.828Z,50.8
2018-03-18T02:43:54.856Z,50.8
2018-03-18T02:44:44.716Z,50.8
2018-03-18T02:45:34.556Z,50.8
2018-03-18T02:46:24.580Z,50.8
2018-03-18T02:47:15.164Z,50.8
2018-03-18T02:48:06.052Z,50.8
2018-03-18T02:48:55.486Z,50.8
2018-03-18T02:49:45.350Z,50.7
2018-03-18T02:50:35.648Z,50.7
2018-03-18T02:51:24.910Z,50.7
2018-03-18T02:52:15.255Z,50.7
2018-03-18T02:53:06.112Z,50.7
2018-03-18T02:53:55.303Z,50.7
2018-03-18T02:54:45.348Z,50.7
2018-03-18T02:55:35.995Z,50.7
2018-03-18T02:56:25.598Z,50.7
2018-03-18T02:57:15.612Z,50.7
2018-03-18T02:58:05.979Z,50.7
2018-03-18T02:58:55.372Z,50.6
2018-03-18T02:59:45.806Z,50.6
2018-03-18T03:00:36.919Z,50.6
2018-03-18T03:01:25.834Z,50.6
2018-03-18T03:02:15.387Z,50.6
2018-03-18T03:03:05.551Z,50.6
2018-03-18T03:03:56.596Z,50.6
2018-03-18T03:04:46.972Z,50.6
2018-03-18T03:05:36.549Z,50.6
2018-03-18T03:06:26.767Z,50.6
2018-03-18T03:07:16.267Z,50.6
2018-03-18T03:08:05.991Z,50.6
2018-03-18T03:08:56.698Z,50.6
2018-03-18T03:09:46.409Z,50.6
2018-03-18T03:10:36.759Z,50.6
2018-03-18T03:11:27.464Z,50.6
2018-03-18T03:12:16.979Z,50.6
2018-03-18T03:13:06.649Z,50.6
2018-03-18T03:13:57.366Z,50.6
2018-03-18T03:14:46.886Z,50.6
2018-03-18T03:15:37.477Z,50.6
2018-03-18T03:16:27.914Z,50.6
2018-03-18T03:17:17.531Z,50.5
2018-03-18T03:18:07.876Z,50.6
2018-03-18T03:18:58.201Z,50.5
2018-03-18T03:19:47.979Z,50.5
2018-03-18T03:20:37.791Z,50.5
2018-03-18T03:21:28.096Z,50.5
2018-03-18T03:22:17.886Z,50.5
2018-03-18T03:23:08.237Z,50.5
2018-03-18T03:23:58.592Z,50.5
2018-03-18T03:24:48.351Z,50.5
2018-03-18T03:25:38.683Z,50.4
2018-03-18T03:26:28.184Z,50.4
2018-03-18T03:27:18.555Z,50.4
2018-03-18T03:28:08.585Z,50.5
2018-03-18T03:28:58.711Z,50.4
2018-03-18T03:29:49.050Z,50.4
2018-03-18T03:30:39.161Z,50.4
2018-03-18T03:31:28.607Z,50.4
2018-03-18T03:32:18.373Z,50.4
2018-03-18T03:33:08.117Z,50.4
2018-03-18T03:33:59.040Z,50.4
2018-03-18T03:34:49.047Z,50.4
2018-03-18T03:35:39.137Z,50.4
2018-03-18T03:36:28.914Z,50.4
2018-03-18T03:37:18.970Z,50.4
2018-03-18T03:38:08.857Z,50.4
2018-03-18T03:38:59.721Z,50.4
2018-03-18T03:39:49.158Z,50.4
2018-03-18T03:40:39.475Z,50.4
2018-03-18T03:41:29.302Z,50.4
2018-03-18T03:42:19.175Z,50.4
2018-03-18T03:43:09.667Z,50.4
2018-03-18T03:43:58.982Z,50.4
2018-03-18T03:44:50.088Z,50.4
2018-03-18T03:45:39.875Z,50.4
2018-03-18T03:46:30.229Z,50.4
2018-03-18T03:47:19.972Z,50.3
2018-03-18T03:48:10.037Z,50.3
2018-03-18T03:49:00.388Z,50.3
2018-03-18T03:49:49.938Z,50.3
2018-03-18T03:50:40.211Z,50.3
2018-03-18T03:51:30.027Z,50.3
2018-03-18T03:52:20.052Z,50.3
2018-03-18T03:53:10.382Z,50.3
2018-03-18T03:54:00.463Z,50.3
2018-03-18T03:54:50.816Z,50.3
2018-03-18T03:55:40.579Z,50.3
2018-03-18T03:56:30.643Z,50.3
2018-03-18T03:57:20.976Z,50.3
2018-03-18T03:58:11.028Z,50.3
2018-03-18T03:59:00.331Z,50.3
2018-03-18T03:59:51.165Z,50.3
2018-03-18T04:00:40.928Z,50.3
2018-03-18T04:01:31.316Z,50.3
2018-03-18T04:02:20.490Z,50.3
2018-03-18T04:03:11.393Z,50.3
2018-03-18T04:04:01.219Z,50.3
2018-03-18T04:04:50.192Z,50.3
2018-03-18T04:05:40.549Z,50.2
2018-03-18T04:06:31.193Z,50.3
2018-03-18T04:07:20.461Z,50.3
2018-03-18T04:08:10.349Z,50.2
2018-03-18T04:09:00.395Z,50.2
2018-03-18T04:09:50.785Z,50.2
2018-03-18T04:10:41.156Z,50.2
2018-03-18T04:11:31.261Z,50.2
2018-03-18T04:12:21.257Z,50.2
2018-03-18T04:13:11.201Z,50.2
2018-03-18T04:14:00.876Z,50.2
2018-03-18T04:14:51.719Z,50.2
2018-03-18T04:15:40.915Z,50.2
2018-03-18T04:16:31.130Z,50.2
2018-03-18T04:17:21.334Z,50.1
2018-03-18T04:18:11.361Z,50.1
2018-03-18T04:19:01.798Z,50.1
2018-03-18T04:19:51.681Z,50.1
2018-03-18T04:20:41.738Z,50.1
2018-03-18T04:21:32.182Z,50.1
2018-03-18T04:22:22.546Z,50.1
2018-03-18T04:23:11.834Z,50.1
2018-03-18T04:24:02.469Z,50.1
2018-03-18T04:24:52.499Z,50.1
2018-03-18T04:25:41.648Z,50.1
2018-03-18T04:26:32.481Z,50.1
2018-03-18T04:27:22.402Z,50.1
2018-03-18T04:28:12.160Z,50.1
2018-03-18T04:29:01.644Z,50.1
2018-03-18T04:29:51.432Z,50.1
2018-03-18T04:30:42.259Z,50.1
2018-03-18T04:31:31.728Z,50.1
2018-03-18T04:32:22.664Z,50.1
2018-03-18T04:33:12.834Z,50.1
2018-03-18T04:34:02.471Z,50.1
2018-03-18T04:34:52.350Z,50.1
2018-03-18T04:35:43.281Z,50.1
2018-03-18T04:36:33.258Z,50.1
2018-03-18T04:37:23.357Z,50
2018-03-18T04:38:12.700Z,50
2018-03-18T04:39:03.441Z,50
2018-03-18T04:39:52.818Z,50
2018-03-18T04:40:43.091Z,50
2018-03-18T04:41:33.759Z,50
2018-03-18T04:42:22.618Z,50
2018-03-18T04:43:13.761Z,50
2018-03-18T04:44:02.955Z,50
2018-03-18T04:44:53.581Z,49.9
2018-03-18T04:45:43.633Z,49.9
2018-03-18T04:46:33.202Z,49.9
2018-03-18T04:47:23.188Z,49.9
2018-03-18T04:48:13.909Z,49.9
2018-03-18T04:49:03.702Z,49.9
2018-03-18T04:49:53.429Z,49.9
2018-03-18T04:50:44.240Z,49.9
2018-03-18T04:51:34.649Z,49.9
2018-03-18T04:52:24.212Z,49.9
2018-03-18T04:53:14.101Z,49.9
2018-03-18T04:54:03.768Z,49.9
2018-03-18T04:54:52.409Z,49.9
2018-03-18T04:55:44.137Z,49.9
2018-03-18T04:56:33.378Z,49.9
2018-03-18T04:57:24.375Z,49.9
2018-03-18T04:58:14.277Z,49.9
2018-03-18T04:59:04.202Z,49.9
2018-03-18T04:59:54.157Z,49.9
2018-03-18T05:00:44.121Z,49.9
2018-03-18T05:01:34.809Z,49.9
2018-03-18T05:02:25.118Z,49.9
2018-03-18T05:03:14.909Z,49.9
2018-03-18T05:04:04.596Z,49.9
2018-03-18T05:04:55.336Z,49.9
2018-03-18T05:05:44.596Z,49.8
2018-03-18T05:06:34.382Z,49.8
2018-03-18T05:07:24.035Z,49.8
2018-03-18T05:08:15.333Z,49.8
2018-03-18T05:09:04.837Z,49.8
2018-03-18T05:09:55.431Z,49.8
2018-03-18T05:10:44.264Z,49.8
2018-03-18T05:11:35.478Z,49.8
2018-03-18T05:12:25.303Z,49.8
2018-03-18T05:13:15.417Z,49.8
2018-03-18T05:14:05.515Z,49.8
2018-03-18T05:14:55.540Z,49.8
2018-03-18T05:15:44.825Z,49.8
2018-03-18T05:16:35.518Z,49.8
2018-03-18T05:17:25.111Z,49.8
2018-03-18T05:18:16.004Z,49.8
2018-03-18T05:19:06.465Z,49.8
2018-03-18T05:19:55.703Z,49.8
2018-03-18T05:20:45.477Z,49.8
2018-03-18T05:21:35.551Z,49.8
2018-03-18T05:22:25.413Z,49.8
2018-03-18T05:23:15.264Z,49.8
2018-03-18T05:24:06.418Z,49.8
2018-03-18T05:24:55.778Z,49.7
2018-03-18T05:25:46.345Z,49.7
2018-03-18T05:26:37.017Z,49.7
2018-03-18T05:27:26.720Z,49.7
2018-03-18T05:28:16.362Z,49.7
2018-03-18T05:29:05.409Z,49.7
2018-03-18T05:29:56.394Z,49.7
2018-03-18T05:30:46.411Z,49.7
2018-03-18T05:31:36.485Z,49.7
2018-03-18T05:32:26.597Z,49.7
2018-03-18T05:33:16.387Z,49.7
2018-03-18T05:34:06.996Z,49.7
2018-03-18T05:34:57.077Z,49.7
2018-03-18T05:35:46.765Z,49.6
2018-03-18T05:36:36.255Z,49.6
2018-03-18T05:37:26.016Z,49.6
2018-03-18T05:38:16.946Z,49.6
2018-03-18T05:39:06.999Z,49.6
2018-03-18T05:39:56.844Z,49.6
2018-03-18T05:40:47.222Z,49.6
2018-03-18T05:41:37.246Z,49.6
2018-03-18T05:42:27.226Z,49.6
2018-03-18T05:43:17.122Z,49.6
2018-03-18T05:44:07.160Z,49.6
2018-03-18T05:44:57.809Z,49.6
2018-03-18T05:45:46.913Z,49.6
2018-03-18T05:46:37.846Z,49.6
2018-03-18T05:47:27.548Z,49.6
2018-03-18T05:48:18.080Z,49.6
2018-03-18T05:49:07.234Z,49.6
2018-03-18T05:49:57.886Z,49.6
2018-03-18T05:50:47.368Z,49.6
2018-03-18T05:51:37.815Z,49.6
2018-03-18T05:52:28.039Z,49.6
2018-03-18T05:53:17.936Z,49.6
2018-03-18T05:54:07.813Z,49.6
2018-03-18T05:54:58.439Z,49.6
2018-03-18T05:55:48.041Z,49.5
2018-03-18T05:56:38.605Z,49.5
2018-03-18T05:57:28.133Z,49.5
2018-03-18T05:58:18.500Z,49.5
2018-03-18T05:59:09.304Z,49.5
2018-03-18T05:59:58.143Z,49.5
2018-03-18T06:00:48.676Z,49.5
2018-03-18T06:01:38.614Z,49.5
2018-03-18T06:02:28.540Z,49.5
2018-03-18T06:03:18.559Z,49.5
2018-03-18T06:04:09.128Z,49.4
2018-03-18T06:04:58.765Z,49.4
2018-03-18T06:05:48.925Z,49.4
2018-03-18T06:06:39.092Z,49.4
2018-03-18T06:07:28.848Z,49.4
2018-03-18T06:08:19.117Z,49.4
2018-03-18T06:09:08.478Z,49.4
2018-03-18T06:09:59.817Z,49.4
2018-03-18T06:10:48.242Z,49.4
2018-03-18T06:11:38.754Z,49.4
2018-03-18T06:12:28.892Z,49.4
2018-03-18T06:13:19.093Z,49.4
2018-03-18T06:14:08.654Z,49.4
2018-03-18T06:14:59.992Z,49.4
2018-03-18T06:15:49.275Z,49.4
2018-03-18T06:16:39.797Z,49.4
2018-03-18T06:17:28.902Z,49.4
2018-03-18T06:18:19.642Z,49.4
2018-03-18T06:19:10.521Z,49.4
2018-03-18T06:19:59.262Z,49.4
2018-03-18T06:20:49.918Z,49.4
2018-03-18T06:21:39.404Z,49.4
2018-03-18T06:22:29.936Z,49.4
2018-03-18T06:23:20.400Z,49.4
2018-03-18T06:24:10.046Z,49.4
2018-03-18T06:24:59.910Z,49.3
2018-03-18T06:25:50.188Z,49.3
2018-03-18T06:26:40.021Z,49.3
2018-03-18T06:27:30.415Z,49.3
2018-03-18T06:28:20.505Z,49.3
2018-03-18T06:29:10.721Z,49.3
2018-03-18T06:30:01.568Z,49.3
2018-03-18T06:30:49.848Z,49.3
2018-03-18T06:31:40.395Z,49.3
2018-03-18T06:32:30.452Z,49.3
2018-03-18T06:33:20.778Z,49.3
2018-03-18T06:34:10.401Z,49.3
2018-03-18T06:35:00.838Z,49.3
2018-03-18T06:35:50.928Z,49.3
2018-03-18T06:36:40.957Z,49.3
2018-03-18T06:37:30.933Z,49.3
2018-03-18T06:38:20.694Z,49.3
2018-03-18T06:39:11.768Z,49.3
2018-03-18T06:40:01.303Z,49.3
2018-03-18T06:40:51.296Z,49.3
2018-03-18T06:41:41.123Z,49.3
2018-03-18T06:42:30.600Z,49.2
2018-03-18T06:43:21.938Z,49.2
2018-03-18T06:44:11.599Z,49.2
2018-03-18T06:45:01.582Z,49.2
2018-03-18T06:45:51.918Z,49.2
2018-03-18T06:46:41.412Z,49.2
2018-03-18T06:47:31.875Z,49.2
2018-03-18T06:48:21.317Z,49.2
2018-03-18T06:49:11.260Z,49.2
2018-03-18T06:50:01.738Z,49.2
2018-03-18T06:50:51.107Z,49.1
2018-03-18T06:51:41.854Z,49.2
2018-03-18T06:52:31.631Z,49.1
2018-03-18T06:53:22.077Z,49.1
2018-03-18T06:54:11.728Z,49.1
2018-03-18T06:55:02.760Z,49.1
2018-03-18T06:55:52.635Z,49.1
2018-03-18T06:56:43.204Z,49.1
2018-03-18T06:57:32.472Z,49.1
2018-03-18T06:58:21.944Z,49.1
2018-03-18T06:59:12.166Z,49.1
2018-03-18T07:00:03.029Z,49.1
2018-03-18T07:00:52.550Z,49.1
2018-03-18T07:01:42.464Z,49.1
2018-03-18T07:02:32.560Z,49.1
2018-03-18T07:03:23.159Z,49.1
2018-03-18T07:04:12.936Z,49.1
2018-03-18T07:05:02.809Z,49.1
2018-03-18T07:05:53.091Z,49.1
2018-03-18T07:06:43.357Z,49.1
2018-03-18T07:07:32.693Z,49.1
2018-03-18T07:08:23.169Z,49
2018-03-18T07:09:13.406Z,49
2018-03-18T07:10:03.880Z,49
2018-03-18T07:10:53.992Z,49
2018-03-18T07:11:43.598Z,49
2018-03-18T07:12:33.841Z,49
2018-03-18T07:13:23.908Z,49
2018-03-18T07:14:13.891Z,49
2018-03-18T07:15:03.950Z,49
2018-03-18T07:15:53.183Z,48.9
2018-03-18T07:16:43.740Z,48.9
2018-03-18T07:17:34.031Z,48.9
2018-03-18T07:18:23.683Z,48.9
2018-03-18T07:19:14.054Z,49
2018-03-18T07:20:04.365Z,48.9
2018-03-18T07:20:54.744Z,48.9
2018-03-18T07:21:44.480Z,48.9
2018-03-18T07:22:35.183Z,48.9
2018-03-18T07:23:25.112Z,48.9
2018-03-18T07:24:15.077Z,48.9
2018-03-18T07:25:05.534Z,48.9
2018-03-18T07:25:55.387Z,48.9
2018-03-18T07:26:44.195Z,48.9
2018-03-18T07:27:35.140Z,48.9
2018-03-18T07:28:25.467Z,48.9
2018-03-18T07:29:15.592Z,48.9
2018-03-18T07:30:05.064Z,48.9
2018-03-18T07:30:55.809Z,48.9
2018-03-18T07:31:45.324Z,48.9
2018-03-18T07:32:34.985Z,48.9
2018-03-18T07:33:25.842Z,48.9
2018-03-18T07:34:16.010Z,48.9
2018-03-18T07:35:05.951Z,48.9
2018-03-18T07:35:56.310Z,48.8
2018-03-18T07:36:45.781Z,48.8
2018-03-18T07:37:35.915Z,48.8
2018-03-18T07:38:26.384Z,48.8
2018-03-18T07:39:16.715Z,48.8
2018-03-18T07:40:05.710Z,48.8
2018-03-18T07:40:55.797Z,48.8
2018-03-18T07:41:46.152Z,48.8
2018-03-18T07:42:36.158Z,48.8
2018-03-18T07:43:25.781Z,48.8
2018-03-18T07:44:16.825Z,48.8
2018-03-18T07:45:06.335Z,48.8
2018-03-18T07:45:56.923Z,48.8
2018-03-18T07:46:46.822Z,48.8
2018-03-18T07:47:35.803Z,48.8
2018-03-18T07:48:27.128Z,48.8
2018-03-18T07:49:16.408Z,48.8
2018-03-18T07:50:07.229Z,48.8
2018-03-18T07:50:57.284Z,48.8
2018-03-18T07:51:46.873Z,48.8
2018-03-18T07:52:37.714Z,48.8
2018-03-18T07:53:27.032Z,48.8
2018-03-18T07:54:17.266Z,48.8
2018-03-18T07:55:06.807Z,48.8
2018-03-18T07:55:57.055Z,48.7
2018-03-18T07:56:47.993Z,48.8
2018-03-18T07:57:37.293Z,48.7
2018-03-18T07:58:27.425Z,48.7
2018-03-18T07:59:17.613Z,48.7
2018-03-18T08:00:07.950Z,48.7
2018-03-18T08:00:58.616Z,48.7
2018-03-18T08:01:47.885Z,48.7
2018-03-18T08:02:38.712Z,48.7
2018-03-18T08:03:27.890Z,48.7
2018-03-18T08:04:17.497Z,48.6
2018-03-18T08:05:08.313Z,48.6
2018-03-18T08:05:58.442Z,48.6
2018-03-18T08:06:48.711Z,48.6
2018-03-18T08:07:37.835Z,48.6
2018-03-18T08:08:28.190Z,48.6
2018-03-18T08:09:18.610Z,48.6
2018-03-18T08:10:08.490Z,48.6
2018-03-18T08:10:58.255Z,48.6
2018-03-18T08:11:48.325Z,48.6
2018-03-18T08:12:38.652Z,48.6
2018-03-18T08:13:28.737Z,48.6
2018-03-18T08:14:17.817Z,48.6
2018-03-18T08:15:09.331Z,48.6
2018-03-18T08:15:59.112Z,48.6
2018-03-18T08:16:49.767Z,48.6
2018-03-18T08:17:39.481Z,48.6
2018-03-18T08:18:29.577Z,48.6
2018-03-18T08:19:18.764Z,48.6
2018-03-18T08:20:10.026Z,48.6
2018-03-18T08:20:59.624Z,48.6
2018-03-18T08:21:49.802Z,48.6
2018-03-18T08:22:39.578Z,48.6
2018-03-18T08:23:29.911Z,48.6
2018-03-18T08:24:19.704Z,48.6
2018-03-18T08:25:10.053Z,48.6
2018-03-18T08:26:00.370Z,48.6
2018-03-18T08:26:50.236Z,48.5
2018-03-18T08:27:39.646Z,48.5
2018-03-18T08:28:29.714Z,48.5
2018-03-18T08:29:20.024Z,48.5
2018-03-18T08:30:10.134Z,48.5
2018-03-18T08:31:00.454Z,48.5
2018-03-18T08:31:50.539Z,48.5
2018-03-18T08:32:40.844Z,48.5
2018-03-18T08:33:30.671Z,48.5
2018-03-18T08:34:21.362Z,48.5
2018-03-18T08:35:10.196Z,48.5
2018-03-18T08:36:00.824Z,48.4
2018-03-18T08:36:50.599Z,48.4
2018-03-18T08:37:40.971Z,48.4
2018-03-18T08:38:31.273Z,48.4
2018-03-18T08:39:21.336Z,48.4
2018-03-18T08:40:11.377Z,48.4
2018-03-18T08:41:01.453Z,48.4
2018-03-18T08:41:51.333Z,48.4
2018-03-18T08:42:41.046Z,48.4
2018-03-18T08:43:31.205Z,48.4
2018-03-18T08:44:21.693Z,48.4
2018-03-18T08:45:11.807Z,48.4
2018-03-18T08:46:01.253Z,48.4
2018-03-18T08:46:52.230Z,48.4
2018-03-18T08:47:40.815Z,48.4
2018-03-18T08:48:31.719Z,48.4
2018-03-18T08:49:21.211Z,48.4
2018-03-18T08:50:11.638Z,48.4
2018-03-18T08:51:01.622Z,48.4
2018-03-18T08:51:51.971Z,48.4
2018-03-18T08:52:41.449Z,48.4
2018-03-18T08:53:31.780Z,48.4
2018-03-18T08:54:22.194Z,48.4
2018-03-18T08:55:11.427Z,48.3
2018-03-18T08:56:02.286Z,48.3
2018-03-18T08:56:52.605Z,48.4
2018-03-18T08:57:41.822Z,48.4
2018-03-18T08:58:31.897Z,48.3
2018-03-18T08:59:22.497Z,48.3
2018-03-18T09:00:12.110Z,48.3
2018-03-18T09:01:02.633Z,48.3
2018-03-18T09:01:52.471Z,48.3
2018-03-18T09:02:41.304Z,48.3
2018-03-18T09:03:32.055Z,48.3
2018-03-18T09:04:21.404Z,48.3
2018-03-18T09:05:11.186Z,48.3
2018-03-18T09:06:01.812Z,48.3
2018-03-18T09:06:52.084Z,48.3
2018-03-18T09:07:41.964Z,48.3
2018-03-18T09:08:31.529Z,48.3
2018-03-18T09:09:22.162Z,48.3
2018-03-18T09:10:11.014Z,48.3
2018-03-18T09:11:01.528Z,48.3
2018-03-18T09:11:51.561Z,48.3
2018-03-18T09:12:41.619Z,48.3
2018-03-18T09:13:32.092Z,48.3
2018-03-18T09:14:22.376Z,48.3
2018-03-18T09:15:12.387Z,48.3
2018-03-18T09:16:01.962Z,48.3
2018-03-18T09:16:53.322Z,48.3
2018-03-18T09:17:41.687Z,48.3
2018-03-18T09:18:33.231Z,48.2
2018-03-18T09:19:23.553Z,48.2
2018-03-18T09:20:13.109Z,48.2
2018-03-18T09:21:02.321Z,48.2
2018-03-18T09:21:52.780Z,48.2
2018-03-18T09:22:44.025Z,48.2
2018-03-18T09:23:33.391Z,48.2
2018-03-18T09:24:23.858Z,48.2
2018-03-18T09:25:12.725Z,48.2
2018-03-18T09:26:02.983Z,48.2
2018-03-18T09:26:54.283Z,48.2
2018-03-18T09:27:43.307Z,48.1
2018-03-18T09:28:33.550Z,48.1
2018-03-18T09:29:23.930Z,48.2
2018-03-18T09:30:13.858Z,48.1
2018-03-18T09:31:04.550Z,48.1
2018-03-18T09:31:54.625Z,48.1
2018-03-18T09:32:44.414Z,48.1
2018-03-18T09:33:33.898Z,48.1
2018-03-18T09:34:24.866Z,48.1
2018-03-18T09:35:13.705Z,48.1
2018-03-18T09:36:04.407Z,48.1
2018-03-18T09:36:55.239Z,48.1
2018-03-18T09:37:44.224Z,48.1
2018-03-18T09:38:34.465Z,48.1
2018-03-18T09:39:24.834Z,48.1
2018-03-18T09:40:14.135Z,48.1
2018-03-18T09:41:04.989Z,48.1
2018-03-18T09:41:54.225Z,48.1
2018-03-18T09:42:44.980Z,48.1
2018-03-18T09:43:35.015Z,48.1
2018-03-18T09:44:24.697Z,48.1
2018-03-18T09:45:15.338Z,48.1
2018-03-18T09:46:05.123Z,48.1
2018-03-18T09:46:55.507Z,48.1
2018-03-18T09:47:44.831Z,48
2018-03-18T09:48:35.314Z,48
2018-03-18T09:49:25.870Z,48.1
2018-03-18T09:50:14.821Z,48
2018-03-18T09:51:05.771Z,48
2018-03-18T09:51:55.736Z,48
2018-03-18T09:52:46.393Z,48
2018-03-18T09:53:35.264Z,48
2018-03-18T09:54:25.260Z,48
2018-03-18T09:55:15.914Z,48
2018-03-18T09:56:04.556Z,48
2018-03-18T09:56:55.592Z,48
2018-03-18T09:57:44.783Z,48
2018-03-18T09:58:35.616Z,47.9
2018-03-18T09:59:25.733Z,48
2018-03-18T10:00:15.987Z,47.9
2018-03-18T10:01:06.313Z,47.9
2018-03-18T10:01:57.029Z,47.9
2018-03-18T10:02:46.241Z,47.9
2018-03-18T10:03:35.804Z,47.9
2018-03-18T10:04:26.655Z,47.9
2018-03-18T10:05:16.330Z,47.9
2018-03-18T10:06:05.499Z,47.9
2018-03-18T10:06:56.816Z,47.9
2018-03-18T10:07:45.709Z,47.9
2018-03-18T10:08:36.455Z,47.9
2018-03-18T10:09:27.043Z,47.9
2018-03-18T10:10:17.056Z,47.9
2018-03-18T10:11:06.444Z,47.9
2018-03-18T10:11:57.579Z,47.9
2018-03-18T10:12:47.043Z,47.9
2018-03-18T10:13:37.940Z,47.9
2018-03-18T10:14:27.082Z,47.9
2018-03-18T10:15:16.645Z,47.9
2018-03-18T10:16:07.872Z,47.9
2018-03-18T10:16:56.643Z,47.8
2018-03-18T10:17:47.900Z,47.8
2018-03-18T10:18:37.648Z,47.8
2018-03-18T10:19:27.430Z,47.8
2018-03-18T10:20:17.908Z,47.8
2018-03-18T10:21:07.524Z,47.8
2018-03-18T10:21:57.974Z,47.8
2018-03-18T10:22:48.784Z,47.8
2018-03-18T10:23:37.850Z,47.8
2018-03-18T10:24:28.455Z,47.8
2018-03-18T10:25:17.973Z,47.8
2018-03-18T10:26:08.552Z,47.8
2018-03-18T10:26:58.311Z,47.8
2018-03-18T10:27:48.380Z,47.8
2018-03-18T10:28:39.237Z,47.7
2018-03-18T10:29:28.962Z,47.7
2018-03-18T10:30:19.125Z,47.7
2018-03-18T10:31:09.482Z,47.7
2018-03-18T10:31:59.427Z,47.7
2018-03-18T10:32:49.227Z,47.7
2018-03-18T10:33:38.771Z,47.7
2018-03-18T10:34:29.665Z,47.7
2018-03-18T10:35:19.451Z,47.7
2018-03-18T10:36:09.748Z,47.7
2018-03-18T10:36:58.964Z,47.7
2018-03-18T10:37:49.868Z,47.7
2018-03-18T10:38:39.926Z,47.7
2018-03-18T10:39:29.971Z,47.7
2018-03-18T10:40:20.061Z,47.6
2018-03-18T10:41:09.820Z,47.6
2018-03-18T10:42:00.979Z,47.6
2018-03-18T10:42:50.260Z,47.6
2018-03-18T10:43:40.328Z,47.6
2018-03-18T10:44:30.335Z,47.6
2018-03-18T10:45:19.925Z,47.6
2018-03-18T10:46:09.752Z,47.6
2018-03-18T10:46:59.051Z,47.6
2018-03-18T10:47:50.361Z,47.6
2018-03-18T10:48:40.219Z,47.6
2018-03-18T10:49:29.119Z,47.6
2018-03-18T10:50:20.039Z,47.6
2018-03-18T10:51:09.703Z,47.6
2018-03-18T10:51:59.958Z,47.6
2018-03-18T10:52:49.620Z,47.6
2018-03-18T10:53:39.605Z,47.6
2018-03-18T10:54:30.358Z,47.6
2018-03-18T10:55:20.131Z,47.6
2018-03-18T10:56:10.057Z,47.6
2018-03-18T10:56:59.703Z,47.6
2018-03-18T10:57:50.774Z,47.6
2018-03-18T10:58:40.536Z,47.6
2018-03-18T10:59:31.170Z,47.5
2018-03-18T11:00:21.543Z,47.5
2018-03-18T11:01:10.733Z,47.5
2018-03-18T11:02:00.807Z,47.5
2018-03-18T11:02:51.390Z,47.5
2018-03-18T11:03:41.468Z,47.5
2018-03-18T11:04:31.506Z,47.5
2018-03-18T11:05:21.625Z,47.5
2018-03-18T11:06:11.652Z,47.4
2018-03-18T11:07:01.752Z,47.5
2018-03-18T11:07:51.753Z,47.5
2018-03-18T11:08:41.880Z,47.4